Weather History for KBIE - March, 2013

Change the Weather History Date:

Sunday, March 31, 2013

  Actual Average Record
Temperature  
Mean Temperature 50 °F -  
Max Temperature 60 °F 61 °F 87 °F (2012)
Min Temperature 39 °F 36 °F 18 °F (1954)
Degree Days  
Heating Degree Days 15    
Moisture  
Dew Point 32 °F    
Average Humidity 52    
Maximum Humidity 85    
Minimum Humidity 21    
Precipitation  
Precipitation 0.00 in - - ()
Sea Level Pressure  
Sea Level Pressure 30.00 in    
Wind  
Wind Speed 10 mph (NNW)    
Max Wind Speed 24 mph    
Max Gust Speed 36 mph    
Visibility 10 miles    
Events Rain    
Averages and records for this station are not official NWS values.
T = Trace of Precipitation, MM = Missing Value Source: NWS Daily Summary

Daily Weather History Graph

Daily Weather History Graph

Search for Another Location

Airport or City:

Trip Planner

Search our weather history database for the weather conditions in past years. The results will help you decide how hot, cold, wet, or windy it might be!

Date:

Astronomy

Mar. 31, 2013 Rise Set
Actual Time 7:11 AM CDT 7:50 PM CDT
Civil Twilight 6:44 AM CDT 8:18 PM CDT
Nautical Twilight 6:12 AM CDT 8:50 PM CDT
Astronomical Twilight 5:38 AM CDT 9:24 PM CDT
Moon No Moon Rise 10:00 AM CDT (3/31)
Length of Visible Light 13h 33m
Length of Day
12h 38m
Waning Gibbous, 77% of the Moon is Illuminated
Mar 31
Waning Gibbous
Apr 2
Last Quarter
Apr 10
New
Apr 18
First Quarter
Apr 25
Full

Hourly Weather History & Observations

Time (CDT) Temp. Windchill Dew Point Humidity Pressure Visibility Wind Dir Wind Speed Gust Speed Precip Events Conditions
12:15 AM 54.0 °F - 42.1 °F 64% 30.00 in 10.0 mi WNW 10.4 mph - N/A   Overcast
12:35 AM 52.9 °F - 43.2 °F 70% 30.00 in 10.0 mi WNW 10.4 mph - N/A Rain Light Rain
12:55 AM 52.2 °F - 43.7 °F 73% 29.99 in 10.0 mi NW 9.2 mph - N/A   Overcast
1:15 AM 51.8 °F - 43.9 °F 74% 30.00 in 10.0 mi NW 8.1 mph - N/A   Overcast
1:35 AM 51.4 °F - 44.6 °F 77% 30.01 in 10.0 mi NW 6.9 mph - N/A   Light Drizzle
1:55 AM 50.9 °F - 45.5 °F 82% 30.00 in 10.0 mi WNW 5.8 mph - N/A Rain Light Rain
2:15 AM 50.5 °F - 45.5 °F 83% 30.00 in 10.0 mi West 9.2 mph - N/A Rain Light Rain
2:35 AM 50.0 °F - 45.5 °F 85% 30.00 in 10.0 mi WSW 5.8 mph - N/A   Overcast
2:55 AM 50.2 °F - 44.8 °F 82% 30.00 in 10.0 mi West 4.6 mph - N/A   Overcast
3:15 AM 50.4 °F - 43.0 °F 76% 30.00 in 10.0 mi NW 6.9 mph - N/A   Light Drizzle
3:35 AM 51.1 °F - 41.2 °F 69% 29.99 in 10.0 mi West 5.8 mph - N/A   Mostly Cloudy
3:55 AM 48.0 °F - 41.4 °F 78% 29.98 in 10.0 mi West 4.6 mph - N/A   Scattered Clouds
4:15 AM 46.2 °F 44.1 °F 39.6 °F 78% 29.98 in 10.0 mi West 4.6 mph - N/A   Clear
4:35 AM 45.0 °F 41.2 °F 38.5 °F 78% 29.98 in 10.0 mi West 6.9 mph - N/A   Clear
4:55 AM 44.6 °F 40.2 °F 38.5 °F 79% 29.98 in 10.0 mi WNW 8.1 mph - N/A   Clear
5:15 AM 44.8 °F 40.4 °F 38.5 °F 79% 29.98 in 10.0 mi West 8.1 mph - N/A   Clear
5:35 AM 43.9 °F 39.3 °F 38.5 °F 81% 29.97 in 10.0 mi West 8.1 mph - N/A   Clear
5:55 AM 44.1 °F 39.5 °F 38.8 °F 82% 29.98 in 10.0 mi West 8.1 mph - N/A   Clear
6:15 AM 43.7 °F 38.1 °F 38.3 °F 81% 29.98 in 10.0 mi West 10.4 mph - N/A   Clear
6:35 AM 43.7 °F 38.1 °F 38.3 °F 81% 29.98 in 10.0 mi West 10.4 mph - N/A   Clear
6:55 AM 42.4 °F 37.0 °F 37.4 °F 82% 29.98 in 10.0 mi West 9.2 mph - N/A   Clear
7:15 AM 41.9 °F 36.9 °F 37.4 °F 84% 29.99 in 10.0 mi WNW 8.1 mph - N/A   Clear
7:35 AM 41.9 °F 37.5 °F 36.9 °F 82% 30.00 in 10.0 mi NW 6.9 mph - N/A   Clear
7:55 AM 43.2 °F 37.4 °F 37.0 °F 79% 30.00 in 10.0 mi NW 10.4 mph - N/A   Clear
8:15 AM 43.9 °F 36.8 °F 37.4 °F 78% 30.00 in 10.0 mi NW 15.0 mph 19.6 mph N/A   Clear
8:35 AM 45.0 °F 38.9 °F 37.6 °F 75% 30.00 in 10.0 mi NW 12.7 mph - N/A   Clear
8:55 AM 45.7 °F 39.1 °F 37.8 °F 74% 30.01 in 10.0 mi NNW 15.0 mph 19.6 mph N/A   Clear
9:15 AM 46.6 °F - 38.3 °F 73% 30.01 in 10.0 mi NNW 15.0 mph - N/A   Clear
9:35 AM 47.3 °F - 38.7 °F 72% 30.02 in 10.0 mi North 16.1 mph 24.2 mph N/A   Clear
9:55 AM 48.4 °F - 38.7 °F 69% 30.02 in 10.0 mi North 17.3 mph - N/A   Clear
10:15 AM 49.5 °F - 35.4 °F 58% 30.02 in 10.0 mi North 11.5 mph 21.9 mph N/A   Clear
10:35 AM 51.1 °F - 35.6 °F 55% 30.02 in 10.0 mi North 15.0 mph - N/A   Clear
10:55 AM 52.2 °F - 35.2 °F 53% 30.02 in 10.0 mi North 15.0 mph 20.7 mph N/A   Clear
11:15 AM 53.4 °F - 32.4 °F 45% 30.02 in 10.0 mi NNW 16.1 mph 21.9 mph N/A   Clear
11:35 AM 55.0 °F - 30.6 °F 39% 30.02 in 10.0 mi North 20.7 mph - N/A   Clear
11:55 AM 55.9 °F - 28.6 °F 35% 30.02 in 10.0 mi North 20.7 mph 25.3 mph N/A   Clear
12:15 PM 56.5 °F - 25.7 °F 31% 30.02 in 10.0 mi North 17.3 mph 27.6 mph N/A   Clear
12:35 PM 57.4 °F - 26.2 °F 30% 30.02 in 10.0 mi North 16.1 mph 21.9 mph N/A   Clear
12:55 PM 57.6 °F - 23.0 °F 26% 30.02 in 10.0 mi NNW 13.8 mph 21.9 mph N/A   Clear
1:15 PM 58.3 °F - 22.6 °F 25% 30.02 in 10.0 mi NW 17.3 mph 23.0 mph N/A   Clear
1:35 PM 58.8 °F - 22.8 °F 25% 30.01 in 10.0 mi North 12.7 mph - N/A   Clear
1:55 PM 59.4 °F - 19.6 °F 21% 30.01 in 10.0 mi NNW 13.8 mph 20.7 mph N/A   Clear
2:15 PM 59.4 °F - 20.7 °F 22% 30.00 in 10.0 mi NNW 13.8 mph 20.7 mph N/A   Clear
2:35 PM 59.9 °F - 22.3 °F 24% 30.00 in 10.0 mi North 12.7 mph 23.0 mph N/A   Clear
2:55 PM 60.4 °F - 22.8 °F 24% 30.00 in 10.0 mi NNW 18.4 mph 21.9 mph N/A   Clear
3:15 PM 59.9 °F - 21.2 °F 22% 29.99 in 10.0 mi NNE 10.4 mph 19.6 mph N/A   Clear
3:35 PM 60.4 °F - 22.3 °F 23% 29.99 in 10.0 mi North 11.5 mph 18.4 mph N/A   Clear
3:55 PM 60.8 °F - 23.0 °F 23% 29.98 in 10.0 mi North 15.0 mph - N/A   Clear
4:15 PM 60.3 °F - 21.7 °F 23% 29.97 in 10.0 mi WNW 5.8 mph - N/A   Clear
4:35 PM 60.8 °F - 22.5 °F 23% 29.97 in 10.0 mi North 6.9 mph - N/A   Clear
4:55 PM 60.4 °F - 21.4 °F 22% 29.96 in 10.0 mi North 4.6 mph - N/A   Clear
5:15 PM 60.3 °F - 21.7 °F 23% 29.96 in 10.0 mi NE 4.6 mph - N/A   Clear
5:35 PM 60.8 °F - 20.8 °F 21% 29.96 in 10.0 mi Calm Calm - N/A   Clear
5:55 PM 60.3 °F - 20.8 °F 22% 29.96 in 7.0 mi NW 4.6 mph - N/A   Clear
6:15 PM 60.1 °F - 20.1 °F 21% 29.95 in 10.0 mi Calm Calm - N/A   Clear
6:35 PM 59.5 °F - 20.8 °F 22% 29.95 in 10.0 mi Calm Calm - N/A   Clear
6:55 PM 59.0 °F - 21.2 °F 23% 29.94 in 10.0 mi Calm Calm - N/A   Clear
7:15 PM 59.0 °F - 20.7 °F 23% 29.94 in 10.0 mi Calm Calm - N/A   Clear
7:35 PM 58.3 °F - 19.9 °F 23% 29.93 in 10.0 mi Calm Calm - N/A   Scattered Clouds
7:55 PM 56.7 °F - 23.2 °F 27% 29.94 in 10.0 mi East 3.5 mph - N/A   Mostly Cloudy
8:15 PM 55.8 °F - 25.0 °F 31% 29.95 in 10.0 mi ENE 4.6 mph - N/A   Overcast
8:35 PM 55.8 °F - 24.3 °F 30% 29.95 in 10.0 mi NE 5.8 mph - N/A   Overcast
8:55 PM 53.6 °F - 28.9 °F 39% 29.97 in 10.0 mi NE 5.8 mph - N/A   Overcast
9:15 PM 53.1 °F - 29.5 °F 40% 29.98 in 10.0 mi NE 6.9 mph - N/A   Overcast
9:35 PM 52.0 °F - 25.9 °F 36% 30.01 in 10.0 mi NNE 17.3 mph 24.2 mph N/A   Overcast
9:55 PM 49.5 °F - 24.4 °F 38% 30.03 in 10.0 mi NNE 20.7 mph 24.2 mph N/A   Overcast
10:15 PM 48.2 °F - 24.3 °F 39% 30.04 in 10.0 mi NNE 17.3 mph 29.9 mph N/A   Overcast
10:35 PM 46.6 °F - 25.5 °F 44% 30.06 in 10.0 mi NNE 20.7 mph 32.2 mph N/A   Overcast
10:55 PM 43.3 °F 34.2 °F 29.1 °F 57% 30.07 in 10.0 mi NNE 23.0 mph 35.7 mph N/A   Overcast
11:15 PM 41.9 °F 32.3 °F 32.0 °F 68% 30.10 in 10.0 mi NNE 23.0 mph 29.9 mph N/A   Overcast
11:35 PM 40.6 °F 32.0 °F 32.7 °F 73% 30.10 in 10.0 mi NNE 17.3 mph 26.5 mph N/A   Overcast
11:55 PM 39.2 °F 28.5 °F 33.8 °F 81% 30.10 in 10.0 mi NNE 24.2 mph 29.9 mph N/A Rain Light Rain